Skip to main content

NOAA/GLERL Met Station at Michigan City, IN

Previous 5 days (top of hour only)
See also Previous 3 Hours (2 minute increments)
Jump down to Data
Switch to [English][Metric]
Zoom: Click and drag, Pan: shift-click and drag, Unzoom: double-click, Unzoom All





Note: Speed = mean wind during 2-minute period at top of hour,
Gust = max wind during 2-minute period at top of hour,
Peak = max wind during entire hour.
• See also 5-day windrose plot


NOAA/GLERL Met Station at Michigan City, IN

Previous 5 days (top of hour only)
See also Previous 3 Hours (2 minute increments)
Jump up to Graphs
Switch to [English][Metric]
                  Wind  Wind  Wind   Air   Dew   Rel     Sta   PAR
                   Spd   Gst   Dir  Temp    Pt   Hum    Pres uE/m2/
YYYY-MM-DD   CDT   kts   kts   deg     F     F     %   in Hg   sec
2018-07-21 18:00  21.6  24.3   332  69.6   0.0   0.0    0.00   236
2018-07-21 17:00  28.6  31.5   333  69.1   0.0   0.0    0.00   392
2018-07-21 16:00  23.7  25.7   336  69.4   0.0   0.0    0.00   339
2018-07-21 15:00  21.2  23.1   357  69.1   0.0   0.0    0.00   812
2018-07-21 14:00  24.5  25.9   340  69.6   0.0   0.0    0.00   630
2018-07-21 13:00  24.3  26.2   342  69.6   0.0   0.0    0.00  1036
2018-07-21 12:00  19.4  21.0   341  70.2   0.0   0.0    0.00   412
2018-07-21 11:00  15.9  17.9   360  69.6   0.0   0.0    0.00   541
2018-07-21 10:00  13.4  15.2     8  69.1   0.0   0.0    0.00   618
2018-07-21 09:00  12.4  13.0     1  69.1   0.0   0.0    0.00   859
2018-07-21 08:00  11.3  12.4     7  68.2   0.0   0.0    0.00   308
2018-07-21 07:00   7.6  10.1   335  68.7   0.0   0.0    0.00   228
2018-07-21 06:00   3.7   4.1   188  67.6   0.0   0.0    0.00     0
2018-07-21 05:00  15.4  16.1   243  68.4   0.0   0.0    0.00     0
2018-07-21 04:00  15.0  15.9   272  69.3   0.0   0.0    0.00     0
2018-07-21 03:00  12.8  13.6   264  69.3   0.0   0.0    0.00     0
2018-07-21 02:00   6.2   6.8   192  67.8   0.0   0.0    0.00     0
2018-07-21 01:00   8.6   9.5   184  68.2   0.0   0.0    0.00     0
2018-07-21 00:00  11.3  12.2   206  68.0   0.0   0.0    0.00     0
2018-07-20 23:00  11.3  14.0   193  68.2   0.0   0.0    0.00     0
2018-07-20 22:00   8.9  10.1   197  68.5   0.0   0.0    0.00     0
2018-07-20 21:00  17.5  18.9   214  68.9   0.0   0.0    0.00     0
2018-07-20 20:00  13.4  15.9   211  68.9   0.0   0.0    0.00     0
2018-07-20 19:00  14.0  14.8   215  70.5   0.0   0.0    0.00   157
2018-07-20 18:00   9.7  10.3   209  69.4   0.0   0.0    0.00   329
2018-07-20 17:00  10.1  11.3   203  70.7   0.0   0.0    0.00    96
2018-07-20 16:00  11.3  13.6   203  71.2   0.0   0.0    0.00  1004
2018-07-20 15:00  14.0  16.3   196  69.1   0.0   0.0    0.00   313
2018-07-20 14:00  17.9  20.8   211  71.6   0.0   0.0    0.00   903
2018-07-20 13:00  18.1  20.6   221  69.3   0.0   0.0    0.00  2035
2018-07-20 12:00   6.4   9.1   173  75.7   0.0   0.0    0.00  2154
2018-07-20 11:00  13.4  16.3   167  77.5   0.0   0.0    0.00   876
2018-07-20 10:00  15.4  19.8   175  75.9   0.0   0.0    0.00  1396
2018-07-20 09:00  15.2  23.1   150  73.8   0.0   0.0    0.00  1068
2018-07-20 08:00  13.2  17.5   150  72.3   0.0   0.0    0.00   370
2018-07-20 07:00  15.0  19.2   145  71.6   0.0   0.0    0.00   157
2018-07-20 06:00  12.6  15.6   138  72.0   0.0   0.0    0.00     0
2018-07-20 05:00  13.8  16.7   148  72.9   0.0   0.0    0.00     0
2018-07-20 04:00  13.4  16.5   145  73.6   0.0   0.0    0.00     0
2018-07-20 03:00  14.4  18.3   146  74.1   0.0   0.0    0.00     0
2018-07-20 02:00  13.8  16.3   145  73.4   0.0   0.0    0.00     0
2018-07-20 01:00  13.4  16.1   135  73.9   0.0   0.0    0.00     0
2018-07-20 00:00  13.0  16.7   136  74.7   0.0   0.0    0.00     0
2018-07-19 23:00  13.2  15.6   125  75.4   0.0   0.0    0.00     0
2018-07-19 22:00   9.3  12.6   138  77.4   0.0   0.0    0.00     0
2018-07-19 21:00  11.7  15.2   127  78.6   0.0   0.0    0.00     0
2018-07-19 20:00   9.3  11.9   125  79.7   0.0   0.0    0.00     0
2018-07-19 19:00  10.3  12.2   143  81.3   0.0   0.0    0.00   164
2018-07-19 18:00  11.3  14.2   166  82.2   0.0   0.0    0.00   328
2018-07-19 17:00  14.0  18.1   192  82.0   0.0   0.0    0.00   829
2018-07-19 16:00  14.2  17.7   160  82.4   0.0   0.0    0.00  1320
2018-07-19 15:00  17.5  22.6   136  82.2   0.0   0.0    0.00   978
2018-07-19 14:00  12.1  18.1   146  81.5   0.0   0.0    0.00  1333
2018-07-19 13:00  10.7  17.1   159  81.0   0.0   0.0    0.00  1694
2018-07-19 12:00  13.6  17.5   139  79.3   0.0   0.0    0.00   846
2018-07-19 11:00  12.2  16.1   168  78.1   0.0   0.0    0.00  1651
2018-07-19 10:00  11.9  15.4   165  75.4   0.0   0.0    0.00  1391
2018-07-19 09:00  11.7  15.2   142  73.2   0.0   0.0    0.00  1068
2018-07-19 08:00   8.0   8.6   130  70.3   0.0   0.0    0.00   822
2018-07-19 07:00   6.6   7.8   122  64.2   0.0   0.0    0.00   329
2018-07-19 06:00   3.9   4.7    62  61.2   0.0   0.0    0.00     7
2018-07-19 05:00   4.1   4.5    39  62.2   0.0   0.0    0.00     0
2018-07-19 04:00   3.9   4.3    64  63.7   0.0   0.0    0.00     0
2018-07-19 03:00   1.4   1.7    51  62.2   0.0   0.0    0.00     0
2018-07-19 02:00   0.2   1.4   131  63.3   0.0   0.0    0.00     0
2018-07-19 01:00   2.3   2.7    67  64.2   0.0   0.0    0.00     0
2018-07-19 00:00   3.3   4.1    89  65.3   0.0   0.0    0.00     0
2018-07-18 23:00   6.0   6.8    69  65.7   0.0   0.0    0.00     0
2018-07-18 22:00   4.3   4.9    63  65.3   0.0   0.0    0.00     0
2018-07-18 21:00   8.2   8.6    47  65.5   0.0   0.0    0.00     0
2018-07-18 20:00   9.7  10.1    30  68.4   0.0   0.0    0.00     0
2018-07-18 19:00  10.5  10.9    12  68.9   0.0   0.0    0.00   328
2018-07-18 18:00  12.8  13.2     1  69.4   0.0   0.0    0.00   679
2018-07-18 17:00  11.3  11.9     2  69.1   0.0   0.0    0.00   985
2018-07-18 16:00  11.3  11.9   351  69.6   0.0   0.0    0.00  1313
2018-07-18 15:00  10.3  10.9     1  68.9   0.0   0.0    0.00  1559
2018-07-18 14:00   9.9  10.5   355  68.5   0.0   0.0    0.00  1723
2018-07-18 13:00   8.0   8.4    17  66.6   0.0   0.0    0.00  1806
2018-07-18 12:00   8.4   8.7     6  65.7   0.0   0.0    0.00  1724
2018-07-18 11:00   7.2   7.8    24  65.1   0.0   0.0    0.00  1642
2018-07-18 10:00   7.2   7.8     8  63.5   0.0   0.0    0.00  1396
2018-07-18 09:00   5.8   6.4    36  62.6   0.0   0.0    0.00  1068
2018-07-18 08:00   7.2   8.2    38  62.2   0.0   0.0    0.00   822
2018-07-18 07:00   7.0   7.6    52  62.8   0.0   0.0    0.00   421
2018-07-18 06:00   7.6   8.6    35  63.3   0.0   0.0    0.00    82
2018-07-18 05:00   4.1   4.7    51  63.3   0.0   0.0    0.00     0
2018-07-18 04:00   4.3   5.1    54  64.0   0.0   0.0    0.00     0
2018-07-18 03:00   9.7  10.7    47  65.7   0.0   0.0    0.00     0
2018-07-18 02:00  12.8  14.4    45  66.4   0.0   0.0    0.00     0
2018-07-18 01:00  15.2  17.1    42  67.8   0.0   0.0    0.00     0
2018-07-18 00:00  21.0  23.1     6  69.8   0.0   0.0    0.00     0
2018-07-17 23:00  22.0  24.5     6  69.6   0.0   0.0    0.00     0
2018-07-17 22:00  19.8  22.6    11  69.6   0.0   0.0    0.00     0
2018-07-17 21:00  19.1  20.6    18  69.8   0.0   0.0    0.00     0
2018-07-17 20:00  16.7  18.1    14  70.2   0.0   0.0    0.00    80
2018-07-17 19:00  18.7  21.6    17  70.9   0.0   0.0    0.00   328
2018-07-17 18:00  19.6  21.0    11  70.7   0.0   0.0    0.00   696
2018-07-17 17:00  19.1  21.8    13  71.4   0.0   0.0    0.00   985
2018-07-17 16:00  21.0  22.9     6  71.8   0.0   0.0    0.00  1313
2018-07-17 15:00  19.4  21.4     6  71.1   0.0   0.0    0.00  1559
2018-07-17 14:00  17.1  18.7   355  72.0   0.0   0.0    0.00  1723
2018-07-17 13:00  15.7  17.3   357  72.9   0.0   0.0    0.00  1569
2018-07-17 12:00  18.5  19.2   351  73.6   0.0   0.0    0.00  1870
2018-07-17 11:00  14.4  15.4   354  73.9   0.0   0.0    0.00  1545
2018-07-17 10:00   5.4   6.2   295  75.4   0.0   0.0    0.00  1387
2018-07-17 09:00   3.9   4.9   314  75.7   0.0   0.0    0.00  1067
2018-07-17 08:00  10.1  10.5   337  74.5   0.0   0.0    0.00   821
2018-07-17 07:00  13.0  13.6   332  74.7   0.0   0.0    0.00   411
2018-07-17 06:00  15.9  17.7   342  74.7   0.0   0.0    0.00    82
2018-07-17 05:00  19.6  21.8   333  74.8   0.0   0.0    0.00     0
2018-07-17 04:00  13.8  15.7   309  75.4   0.0   0.0    0.00     0
2018-07-17 03:00  12.1  12.6   278  74.5   0.0   0.0    0.00     0
2018-07-17 02:00   8.0   8.7   277  73.8   0.0   0.0    0.00     0
2018-07-17 01:00   6.0   7.0   299  74.3   0.0   0.0    0.00     0
2018-07-17 00:00   7.2   8.2   345  75.0   0.0   0.0    0.00     0
2018-07-16 23:00   6.4   8.4   352  74.8   0.0   0.0    0.00     0
2018-07-16 22:00   8.2   9.1    17  74.8   0.0   0.0    0.00     0
2018-07-16 21:00   8.7   9.9    12  74.8   0.0   0.0    0.00     0
2018-07-16 20:00   9.7  10.7    17  74.8   0.0   0.0    0.00    79
2018-07-16 19:00   9.1   9.5    10  75.6   0.0   0.0    0.00   297